Time;durP1;ratioP1;P1;durP2;ratioP2;P2;SDS_P1;SDS_P2;PMS_P1;PMS_P2;Temp;Humidity;BMP_temperature;BMP_pressure;BME280_temperature;BME280_humidity;BME280_pressure;Samples;Min_cycle;Max_cycle;Signal;HPM_P1;HPM_P2
2022/02/18 00:00:06;;;;;;;36.03;6.17;;;9.20;99.90;;;;;;5076365;28;20202;-78
2022/02/18 00:02:34;;;;;;;33.07;5.80;;;9.30;99.90;;;;;;5075916;28;20209;-80
2022/02/18 00:05:01;;;;;;;35.40;6.17;;;9.40;99.90;;;;;;5076170;28;20228;-79
2022/02/18 00:07:27;;;;;;;43.07;7.23;;;9.40;99.90;;;;;;5075845;28;20672;-78
2022/02/18 00:09:54;;;;;;;35.40;6.83;;;9.40;99.90;;;;;;5075618;28;20688;-79
2022/02/18 00:12:21;;;;;;;34.67;7.00;;;9.30;99.90;;;;;;5076096;28;20213;-84
2022/02/18 00:14:49;;;;;;;34.23;6.40;;;9.30;99.90;;;;;;5075148;28;20217;-81
2022/02/18 00:17:16;;;;;;;37.23;6.27;;;9.40;99.90;;;;;;5076059;28;20254;-78
2022/02/18 00:19:44;;;;;;;35.00;6.10;;;9.40;99.90;;;;;;5076210;28;20550;-78
2022/02/18 00:22:11;;;;;;;31.20;5.93;;;9.30;99.90;;;;;;5076103;28;20221;-80
2022/02/18 00:24:38;;;;;;;40.53;6.73;;;9.30;99.90;;;;;;5075905;28;20205;-79
2022/02/18 00:27:05;;;;;;;34.73;6.23;;;9.30;99.90;;;;;;5075622;28;20205;-78
2022/02/18 00:29:32;;;;;;;41.85;7.85;;;9.30;99.90;;;;;;5074432;28;20435;-80
2022/02/18 00:31:59;;;;;;;32.00;6.30;;;9.30;99.90;;;;;;5075903;28;20217;-77
2022/02/18 00:34:26;;;;;;;41.37;7.20;;;9.30;99.90;;;;;;5075598;28;20202;-85
2022/02/18 00:36:54;;;;;;;31.43;6.27;;;9.30;99.90;;;;;;5075866;28;20209;-77
2022/02/18 00:39:20;;;;;;;39.83;6.73;;;9.20;99.90;;;;;;5074845;28;20214;-79
2022/02/18 00:41:47;;;;;;;42.77;6.80;;;9.30;99.90;;;;;;5075442;28;20547;-80
2022/02/18 00:44:14;;;;;;;53.03;7.83;;;9.20;99.90;;;;;;5074992;28;20201;-78
2022/02/18 00:46:41;;;;;;;46.00;7.33;;;9.10;99.90;;;;;;5075397;28;20252;-79
2022/02/18 00:49:08;;;;;;;44.63;6.50;;;9.10;99.90;;;;;;5075273;28;20198;-80
2022/02/18 00:51:35;;;;;;;43.00;8.68;;;9.10;99.90;;;;;;5074640;28;20443;-77
2022/02/18 00:54:03;;;;;;;32.40;6.60;;;9.10;99.90;;;;;;5075377;28;20205;-77
2022/02/18 00:56:30;;;;;;;45.80;7.17;;;9.20;99.90;;;;;;5075664;28;20221;-78
2022/02/18 00:59:00;;;;;;;37.13;6.77;;;9.20;99.90;;;;;;5075081;28;20186;-83
2022/02/18 01:01:26;;;;;;;32.27;6.93;;;9.20;99.90;;;;;;5075341;28;20565;-79
2022/02/18 01:03:53;;;;;;;35.03;6.67;;;9.30;99.90;;;;;;5075052;28;20206;-78
2022/02/18 01:06:21;;;;;;;50.03;7.43;;;9.30;99.90;;;;;;5075292;28;20274;-80
2022/02/18 01:08:47;;;;;;;33.83;7.13;;;9.30;99.90;;;;;;5074756;28;20242;-80
2022/02/18 01:11:15;;;;;;;45.13;7.47;;;9.20;99.90;;;;;;5074689;28;20305;-80
2022/02/18 01:13:42;;;;;;;33.47;7.33;;;9.20;99.90;;;;;;5074747;28;20205;-78
2022/02/18 01:16:09;;;;;;;34.53;6.70;;;9.20;99.90;;;;;;5074836;28;20218;-79
2022/02/18 01:18:36;;;;;;;29.10;7.30;;;9.20;99.90;;;;;;5074770;28;20228;-79
2022/02/18 01:21:03;;;;;;;40.20;7.50;;;9.20;99.90;;;;;;5074768;28;20199;-79
2022/02/18 01:23:30;;;;;;;40.17;6.60;;;9.20;99.90;;;;;;5074190;28;20209;-78
2022/02/18 01:25:57;;;;;;;38.03;6.93;;;9.30;99.90;;;;;;5074697;28;20213;-80
2022/02/18 01:28:25;;;;;;;31.40;6.40;;;9.50;99.90;;;;;;5074335;28;20194;-78
2022/02/18 01:30:52;;;;;;;27.10;6.33;;;9.50;99.90;;;;;;5074626;28;20201;-78
2022/02/18 01:33:19;;;;;;;33.67;6.27;;;9.40;99.90;;;;;;5074377;28;20665;-79
2022/02/18 01:35:45;;;;;;;36.80;7.17;;;9.50;99.90;;;;;;5074338;28;20723;-77
2022/02/18 01:38:12;;;;;;;35.17;6.63;;;9.50;99.90;;;;;;5074502;28;20208;-78
2022/02/18 01:40:39;;;;;;;31.87;6.13;;;9.50;99.90;;;;;;5074453;28;20209;-78
2022/02/18 01:43:06;;;;;;;34.10;6.67;;;9.60;99.90;;;;;;5073933;28;20217;-80
2022/02/18 01:45:34;;;;;;;30.27;6.47;;;9.50;99.90;;;;;;5074445;28;20197;-81
2022/02/18 01:48:01;;;;;;;40.50;6.20;;;9.50;99.90;;;;;;5074385;28;20194;-79
2022/02/18 01:50:27;;;;;;;34.83;5.80;;;9.40;99.90;;;;;;5074093;28;20194;-79
2022/02/18 01:52:56;;;;;;;41.33;6.10;;;9.40;99.90;;;;;;5074081;28;20190;-80
2022/02/18 01:55:24;;;;;;;37.33;6.73;;;9.30;99.90;;;;;;5073864;28;20240;-80
2022/02/18 01:57:52;;;;;;;30.23;6.37;;;9.20;99.90;;;;;;5073937;28;20201;-78
2022/02/18 02:00:21;;;;;;;27.53;5.80;;;9.10;99.90;;;;;;5073798;28;20563;-80
2022/02/18 02:02:50;;;;;;;27.83;5.83;;;9.10;99.90;;;;;;5074213;28;20562;-83
2022/02/18 02:05:18;;;;;;;34.30;5.67;;;9.20;99.90;;;;;;5073602;28;20236;-78
2022/02/18 02:07:45;;;;;;;30.60;5.57;;;9.10;99.90;;;;;;5074003;28;20288;-79
2022/02/18 02:10:15;;;;;;;32.60;5.70;;;9.10;99.90;;;;;;5073372;28;20225;-79
2022/02/18 02:12:47;;;;;;;38.73;6.27;;;9.10;99.90;;;;;;5073601;28;20208;-78
2022/02/18 02:15:14;;;;;;;31.27;5.67;;;9.10;99.90;;;;;;5073456;28;20287;-79
2022/02/18 02:17:41;;;;;;;30.53;6.10;;;9.20;99.90;;;;;;5073515;28;20208;-79
2022/02/18 02:20:11;;;;;;;28.70;5.70;;;9.10;99.90;;;;;;5073466;28;20198;-78
2022/02/18 02:22:40;;;;;;;31.50;5.20;;;9.10;99.90;;;;;;5073514;28;20206;-78
2022/02/18 02:25:08;;;;;;;29.17;6.00;;;9.00;99.90;;;;;;5073750;28;20637;-78
2022/02/18 02:27:35;;;;;;;36.37;6.27;;;9.00;99.90;;;;;;5073510;28;20197;-77
2022/02/18 02:30:04;;;;;;;22.63;4.67;;;9.00;99.90;;;;;;5073427;28;20206;-78
2022/02/18 02:32:31;;;;;;;29.33;5.77;;;8.90;99.90;;;;;;5073450;28;20223;-79
2022/02/18 02:34:58;;;;;;;27.47;4.70;;;9.00;99.90;;;;;;5073590;28;20238;-79
2022/02/18 02:37:25;;;;;;;23.97;4.57;;;9.00;99.90;;;;;;5073323;28;20201;-86
2022/02/18 02:39:53;;;;;;;24.90;5.27;;;9.10;99.90;;;;;;5065390;28;20221;-81
2022/02/18 02:42:20;;;;;;;27.97;5.07;;;9.10;99.90;;;;;;5051975;28;20209;-79
2022/02/18 02:44:47;;;;;;;27.77;5.07;;;9.10;99.90;;;;;;5052198;28;20210;-79
2022/02/18 02:47:14;;;;;;;36.70;5.60;;;9.00;99.90;;;;;;5052059;28;20259;-79
2022/02/18 02:49:41;;;;;;;27.07;4.70;;;9.10;99.90;;;;;;5053371;28;20226;-79
2022/02/18 02:52:08;;;;;;;22.40;5.03;;;9.10;99.90;;;;;;5052800;28;20206;-84
2022/02/18 02:54:35;;;;;;;34.40;5.30;;;9.00;99.90;;;;;;5052315;28;20572;-79
2022/02/18 02:57:03;;;;;;;21.00;4.57;;;9.10;99.90;;;;;;5052740;28;20689;-82
2022/02/18 02:59:32;;;;;;;28.20;5.23;;;9.10;99.90;;;;;;5052840;28;20194;-86
2022/02/18 03:01:59;;;;;;;28.88;5.82;;;9.10;99.90;;;;;;5052362;28;20444;-78
2022/02/18 03:04:28;;;;;;;32.43;5.83;;;9.10;99.90;;;;;;5053070;28;20218;-80
2022/02/18 03:06:54;;;;;;;27.67;5.07;;;9.20;99.90;;;;;;5052728;28;20203;-84
2022/02/18 03:09:21;;;;;;;22.43;4.67;;;9.20;99.90;;;;;;5052509;28;20210;-79
2022/02/18 03:11:48;;;;;;;24.73;5.13;;;9.30;99.90;;;;;;5052458;28;20662;-81
2022/02/18 03:14:16;;;;;;;24.47;4.87;;;9.30;99.90;;;;;;5052949;28;20206;-82
2022/02/18 03:16:43;;;;;;;27.90;4.63;;;9.30;99.90;;;;;;5052540;28;20237;-80
2022/02/18 03:19:09;;;;;;;29.77;5.23;;;9.30;99.90;;;;;;5052533;28;20541;-88
2022/02/18 03:21:37;;;;;;;29.40;5.07;;;9.40;99.90;;;;;;5052664;28;20198;-79
2022/02/18 03:24:04;;;;;;;25.92;5.30;;;9.30;99.90;;;;;;5052100;28;20440;-79
2022/02/18 03:26:31;;;;;;;23.60;4.50;;;9.30;99.90;;;;;;5053018;28;20217;-80
2022/02/18 03:28:58;;;;;;;24.33;4.83;;;9.40;99.90;;;;;;5052252;28;20211;-79
2022/02/18 03:31:26;;;;;;;19.93;4.63;;;9.50;99.90;;;;;;5052672;28;20229;-79
2022/02/18 03:33:52;;;;;;;26.77;5.20;;;9.30;99.90;;;;;;5052436;28;20203;-78
2022/02/18 03:36:19;;;;;;;26.97;6.30;;;9.20;99.90;;;;;;5052422;28;20233;-80
2022/02/18 03:38:46;;;;;;;20.47;4.37;;;9.20;99.90;;;;;;5051975;28;20653;-79
2022/02/18 03:41:13;;;;;;;22.93;4.53;;;9.30;99.90;;;;;;5052552;28;20523;-78
2022/02/18 03:43:39;;;;;;;19.97;4.97;;;9.30;99.90;;;;;;5052851;28;20198;-83
2022/02/18 03:46:06;;;;;;;24.93;5.80;;;9.30;99.90;;;;;;5052453;28;20646;-79
2022/02/18 03:48:34;;;;;;;25.13;5.67;;;9.30;99.90;;;;;;5052412;28;20203;-80
2022/02/18 03:51:01;;;;;;;23.97;6.50;;;9.20;99.90;;;;;;5052573;28;20301;-79
2022/02/18 03:53:28;;;;;;;30.60;7.67;;;9.10;99.90;;;;;;5051942;28;20656;-78
2022/02/18 03:55:55;;;;;;;23.97;7.30;;;9.20;99.90;;;;;;5052540;28;20233;-79
2022/02/18 03:58:22;;;;;;;30.57;9.07;;;9.10;99.90;;;;;;5052390;28;20202;-80
2022/02/18 04:00:49;;;;;;;31.17;9.63;;;9.20;99.90;;;;;;5052517;28;20218;-83
2022/02/18 04:03:15;;;;;;;30.37;9.77;;;9.20;99.90;;;;;;5052454;28;20190;-79
2022/02/18 04:05:44;;;;;;;29.07;9.50;;;9.20;99.90;;;;;;5052649;28;20222;-78
2022/02/18 04:08:11;;;;;;;30.38;9.85;;;9.20;99.90;;;;;;5051735;28;20452;-80
2022/02/18 04:10:38;;;;;;;24.17;7.73;;;9.20;99.90;;;;;;5052090;28;20290;-77
2022/02/18 04:13:05;;;;;;;24.30;6.63;;;9.30;99.90;;;;;;5052370;28;20199;-79
2022/02/18 04:15:33;;;;;;;22.30;5.67;;;9.20;99.90;;;;;;5056002;28;20213;-80
2022/02/18 04:17:59;;;;;;;26.63;6.40;;;9.20;99.90;;;;;;5056298;28;20280;-80
2022/02/18 04:20:28;;;;;;;22.60;5.60;;;9.30;99.90;;;;;;5056269;28;20202;-80
2022/02/18 04:22:56;;;;;;;21.00;5.43;;;9.40;99.90;;;;;;5055929;28;20540;-79
2022/02/18 04:25:23;;;;;;;27.93;6.13;;;9.50;99.90;;;;;;5056207;28;20230;-80
2022/02/18 04:27:54;;;;;;;20.57;5.93;;;9.50;99.90;;;;;;5056238;28;20210;-80
2022/02/18 04:30:21;;;;;;;24.80;8.27;;;9.50;99.90;;;;;;5055066;28;20421;-80
2022/02/18 04:32:48;;;;;;;18.83;6.40;;;9.60;99.90;;;;;;5055953;28;20199;-81
2022/02/18 04:35:15;;;;;;;28.87;7.33;;;9.70;99.90;;;;;;5055506;28;20194;-79
2022/02/18 04:37:42;;;;;;;24.83;7.27;;;9.70;99.90;;;;;;5055272;28;20215;-80
2022/02/18 04:40:12;;;;;;;30.73;7.57;;;9.60;99.90;;;;;;5056137;28;20614;-79
2022/02/18 04:42:39;;;;;;;32.80;8.13;;;9.50;99.90;;;;;;5056716;28;20202;-79
2022/02/18 04:45:07;;;;;;;28.17;8.37;;;9.40;99.90;;;;;;5056561;28;20206;-80
2022/02/18 04:47:34;;;;;;;27.33;8.20;;;9.40;99.90;;;;;;5056475;28;20293;-80
2022/02/18 04:50:01;;;;;;;32.73;8.30;;;9.40;99.90;;;;;;5056057;28;20217;-79
2022/02/18 04:52:28;;;;;;;30.27;9.27;;;9.30;99.90;;;;;;5054138;28;20446;-80
2022/02/18 04:54:56;;;;;;;27.03;7.00;;;9.30;99.90;;;;;;5056250;28;20568;-80
2022/02/18 04:57:24;;;;;;;29.73;6.47;;;9.10;99.90;;;;;;5056255;28;20233;-81
2022/02/18 04:59:52;;;;;;;30.13;5.57;;;9.10;99.90;;;;;;5055515;28;20203;-81
2022/02/18 05:02:21;;;;;;;24.77;5.30;;;9.10;99.90;;;;;;5055182;28;20203;-78
2022/02/18 05:04:48;;;;;;;31.23;5.77;;;9.10;99.90;;;;;;5058969;28;20252;-79
2022/02/18 05:07:17;;;;;;;24.93;4.83;;;8.90;99.90;;;;;;5076763;28;20206;-83
2022/02/18 05:09:45;;;;;;;24.00;5.27;;;8.90;99.90;;;;;;5076404;28;20213;-81
2022/02/18 05:12:13;;;;;;;29.20;5.47;;;8.90;99.90;;;;;;5076378;28;20444;-80
2022/02/18 05:14:42;;;;;;;24.57;5.37;;;8.90;99.90;;;;;;5075492;28;20562;-79
2022/02/18 05:17:09;;;;;;;31.27;5.60;;;8.90;99.90;;;;;;5075229;28;20225;-81
2022/02/18 05:19:36;;;;;;;26.03;5.77;;;8.80;99.90;;;;;;5074978;28;20564;-80
2022/02/18 05:22:04;;;;;;;24.53;4.90;;;8.80;99.90;;;;;;5075898;28;20210;-81
2022/02/18 05:24:31;;;;;;;28.50;5.40;;;8.70;99.90;;;;;;5075160;28;20197;-79
2022/02/18 05:26:58;;;;;;;26.73;5.17;;;8.70;99.90;;;;;;5075721;28;20206;-80
2022/02/18 05:29:25;;;;;;;35.13;6.83;;;8.80;99.90;;;;;;5075378;28;20208;-81
2022/02/18 05:31:53;;;;;;;24.83;5.40;;;8.80;99.90;;;;;;5075694;28;20202;-80
2022/02/18 05:34:20;;;;;;;31.60;5.87;;;8.90;99.90;;;;;;5075487;28;20522;-80
2022/02/18 05:36:47;;;;;;;24.17;4.60;;;8.90;99.90;;;;;;5075847;28;20214;-82
2022/02/18 05:39:14;;;;;;;30.77;6.00;;;8.90;99.90;;;;;;5075814;28;20198;-82
2022/02/18 05:41:41;;;;;;;35.90;5.43;;;9.00;99.90;;;;;;5075354;28;20573;-83
2022/02/18 05:44:08;;;;;;;19.70;4.70;;;9.00;99.90;;;;;;5075798;28;20194;-81
2022/02/18 05:46:34;;;;;;;22.57;4.57;;;9.00;99.90;;;;;;5075935;28;20193;-84
2022/02/18 05:49:05;;;;;;;23.60;4.77;;;9.00;99.90;;;;;;5075582;28;20213;-90
2022/02/18 05:51:34;;;;;;;24.50;4.83;;;9.00;99.90;;;;;;5075989;28;20194;-89
2022/02/18 05:54:02;;;;;;;25.27;5.03;;;9.10;99.90;;;;;;5076062;28;20707;-90
2022/02/18 05:56:35;;;;;;;22.65;5.15;;;9.10;99.90;;;;;;5076803;28;20455;-91
2022/02/18 05:59:08;;;;;;;18.97;4.47;;;9.10;99.90;;;;;;5077306;28;20228;-91
2022/02/18 06:01:47;;;;;;;17.90;4.63;;;9.10;99.90;;;;;;5077675;28;20204;-89
2022/02/18 06:04:17;;;;;;;17.60;4.83;;;9.20;99.90;;;;;;5075704;28;20688;-81
2022/02/18 06:06:45;;;;;;;17.03;3.57;;;9.20;99.90;;;;;;5072722;28;20194;-80
2022/02/18 06:09:12;;;;;;;19.60;4.43;;;9.30;99.90;;;;;;5073502;28;20656;-80
2022/02/18 06:11:39;;;;;;;18.50;4.30;;;9.20;99.90;;;;;;5074699;28;20558;-79
2022/02/18 06:14:07;;;;;;;24.70;3.90;;;9.30;99.90;;;;;;5074281;28;20190;-79
2022/02/18 06:16:33;;;;;;;19.53;5.53;;;9.30;99.90;;;;;;5074607;28;20226;-82
2022/02/18 06:19:03;;;;;;;15.50;4.55;;;9.40;99.90;;;;;;5073790;28;20431;-81
2022/02/18 06:21:32;;;;;;;16.07;4.40;;;9.50;99.90;;;;;;5075209;28;20229;-79
2022/02/18 06:24:01;;;;;;;13.30;3.40;;;9.50;99.90;;;;;;5076140;28;20684;-81
2022/02/18 06:26:28;;;;;;;12.83;3.77;;;9.50;99.90;;;;;;5075915;28;20198;-81
2022/02/18 06:28:55;;;;;;;13.63;3.60;;;9.60;99.90;;;;;;5075894;28;20219;-80
2022/02/18 06:31:23;;;;;;;14.67;3.20;;;9.60;99.90;;;;;;5074928;28;20206;-84
2022/02/18 06:33:51;;;;;;;10.63;3.43;;;9.70;99.90;;;;;;5073414;28;20205;-82
2022/02/18 06:36:23;;;;;;;10.37;3.10;;;9.80;99.90;;;;;;5075076;28;20634;-90
2022/02/18 06:38:58;;;;;;;9.17;2.80;;;9.80;99.90;;;;;;5080041;28;20194;-90
2022/02/18 06:41:25;;;;;;;12.90;4.00;;;9.90;99.90;;;;;;5074225;28;20902;-91
2022/02/18 06:43:55;;;;;;;10.17;3.03;;;10.00;99.90;;;;;;5076492;28;20205;-89
2022/02/18 06:46:24;;;;;;;12.90;3.60;;;10.00;99.90;;;;;;5074627;28;20198;-86
2022/02/18 06:48:53;;;;;;;11.37;3.00;;;10.10;99.90;;;;;;5075245;28;20221;-90
2022/02/18 06:51:21;;;;;;;6.03;2.83;;;10.20;99.90;;;;;;5075262;28;20217;-90
2022/02/18 06:53:49;;;;;;;11.80;3.27;;;10.20;99.90;;;;;;5074961;28;20197;-87
2022/02/18 06:56:21;;;;;;;7.83;2.40;;;10.30;99.90;;;;;;5074883;28;20558;-89
2022/02/18 06:58:54;;;;;;;14.73;3.63;;;10.30;99.90;;;;;;5075773;28;20217;-84
2022/02/18 07:01:21;;;;;;;7.07;2.57;;;10.40;99.90;;;;;;5075055;28;20194;-91
2022/02/18 07:03:49;;;;;;;9.20;2.60;;;10.40;99.90;;;;;;5075298;28;20244;-88
2022/02/18 07:06:19;;;;;;;7.07;2.53;;;10.50;99.90;;;;;;5075786;28;20225;-90
2022/02/18 07:08:52;;;;;;;3.87;2.37;;;10.60;99.90;;;;;;5074281;28;20649;-91
2022/02/18 07:11:21;;;;;;;4.67;2.20;;;10.70;99.90;;;;;;5074759;28;20241;-89
2022/02/18 07:13:54;;;;;;;7.40;2.23;;;10.70;99.90;;;;;;5075487;28;20209;-90
2022/02/18 07:16:23;;;;;;;6.77;2.77;;;10.70;99.90;;;;;;5075833;28;20194;-90
2022/02/18 07:18:50;;;;;;;6.57;2.30;;;10.70;99.90;;;;;;5075225;28;20304;-89
2022/02/18 07:21:23;;;;;;;7.57;3.00;;;10.80;99.90;;;;;;5074818;28;20523;-88
2022/02/18 07:23:56;;;;;;;8.65;3.10;;;10.80;99.90;;;;;;5074701;28;20945;-90
2022/02/18 07:26:27;;;;;;;7.87;2.20;;;10.80;99.90;;;;;;5075078;28;20190;-90
2022/02/18 07:28:54;;;;;;;6.53;2.67;;;10.90;99.90;;;;;;5074150;28;20217;-78
2022/02/18 07:31:21;;;;;;;8.27;2.30;;;10.90;99.90;;;;;;5074131;28;20202;-85
2022/02/18 07:33:47;;;;;;;7.77;2.80;;;10.90;99.90;;;;;;5073606;28;20205;-81
2022/02/18 07:36:14;;;;;;;6.63;2.37;;;11.00;99.90;;;;;;5073196;28;20198;-80
2022/02/18 07:38:41;;;;;;;7.63;2.50;;;11.00;99.90;;;;;;5072843;28;20214;-78
2022/02/18 07:41:08;;;;;;;5.03;2.03;;;11.10;99.90;;;;;;5072256;28;20197;-77
2022/02/18 07:43:36;;;;;;;6.23;2.20;;;11.10;99.90;;;;;;5072459;28;20199;-81
2022/02/18 07:46:03;;;;;;;4.70;2.43;;;11.30;99.90;;;;;;5072260;28;20205;-79
2022/02/18 07:48:30;;;;;;;6.07;2.47;;;11.20;99.90;;;;;;5074429;28;20210;-81
2022/02/18 07:50:57;;;;;;;3.83;2.37;;;11.40;99.90;;;;;;5076997;28;20209;-81
2022/02/18 07:53:24;;;;;;;4.00;2.17;;;11.30;99.90;;;;;;5076944;28;20202;-81
2022/02/18 07:55:51;;;;;;;5.00;2.00;;;11.30;99.90;;;;;;5077567;28;20194;-83
2022/02/18 07:58:19;;;;;;;4.80;1.50;;;11.30;99.90;;;;;;5076461;28;20246;-80
2022/02/18 08:00:47;;;;;;;3.60;1.67;;;11.40;99.90;;;;;;5077775;28;20623;-85
2022/02/18 08:03:15;;;;;;;3.90;1.63;;;11.50;99.90;;;;;;5080361;28;20297;-77
2022/02/18 08:05:42;;;;;;;1.90;1.70;;;11.50;99.90;;;;;;5078563;28;20230;-75
2022/02/18 08:08:09;;;;;;;3.70;1.40;;;11.50;99.90;;;;;;5077917;28;20211;-80
2022/02/18 08:10:36;;;;;;;3.50;1.83;;;11.50;99.90;;;;;;5077672;28;20214;-78
2022/02/18 08:13:11;;;;;;;2.63;1.63;;;11.60;99.90;;;;;;5077222;28;20675;-91
2022/02/18 08:15:37;;;;;;;2.63;1.50;;;11.60;99.90;;;;;;5085068;28;20194;-86
2022/02/18 08:18:17;;;;;;;2.43;1.50;;;11.60;99.90;;;;;;5080600;28;20228;-91
2022/02/18 08:20:44;;;;;;;4.10;1.27;;;11.70;99.90;;;;;;5078706;28;20198;-88
2022/02/18 08:23:12;;;;;;;1.13;1.03;;;11.70;99.90;;;;;;5080041;28;20195;-93
2022/02/18 08:25:46;;;;;;;3.97;1.45;;;11.80;99.90;;;;;;5081767;28;20430;-91
2022/02/18 08:28:12;;;;;;;1.13;1.03;;;11.90;99.90;;;;;;5082457;28;20194;-88
2022/02/18 08:30:45;;;;;;;0.70;0.70;;;11.80;99.90;;;;;;5082579;28;20200;-89
2022/02/18 08:33:13;;;;;;;1.33;1.00;;;11.90;99.90;;;;;;5080867;28;20204;-89
2022/02/18 08:35:43;;;;;;;0.50;0.50;;;11.90;99.90;;;;;;5080474;28;20201;-88
2022/02/18 08:38:10;;;;;;;2.30;0.87;;;11.90;99.90;;;;;;5078151;28;20223;-77
2022/02/18 08:40:37;;;;;;;2.23;0.93;;;12.00;99.90;;;;;;5075663;28;20207;-78
2022/02/18 08:43:04;;;;;;;1.73;0.90;;;12.00;99.90;;;;;;5075081;28;20455;-84
2022/02/18 08:45:31;;;;;;;1.37;0.80;;;12.10;99.90;;;;;;5075943;28;20195;-79
2022/02/18 08:47:58;;;;;;;2.10;1.10;;;12.20;99.90;;;;;;5076056;28;20207;-78
2022/02/18 08:50:28;;;;;;;0.67;0.50;;;12.20;99.90;;;;;;5075987;28;20203;-77
2022/02/18 08:52:56;;;;;;;1.43;0.80;;;12.20;99.90;;;;;;5075377;28;20203;-77
2022/02/18 08:55:24;;;;;;;1.27;0.70;;;12.20;99.90;;;;;;5075183;28;20196;-78
2022/02/18 08:57:51;;;;;;;0.60;0.60;;;12.30;99.90;;;;;;5072038;28;20217;-77
2022/02/18 09:00:19;;;;;;;0.93;0.67;;;12.30;99.90;;;;;;5073242;28;20666;-75
2022/02/18 09:02:46;;;;;;;4.67;0.93;;;12.30;99.90;;;;;;5074861;28;20678;-75
2022/02/18 09:05:15;;;;;;;1.10;0.50;;;12.40;99.90;;;;;;5075218;28;20221;-86
2022/02/18 09:07:44;;;;;;;1.13;0.73;;;12.30;99.90;;;;;;5075176;28;20191;-76
2022/02/18 09:10:11;;;;;;;1.73;0.80;;;12.40;99.90;;;;;;5074587;28;20265;-84
2022/02/18 09:12:39;;;;;;;0.70;0.70;;;12.40;99.90;;;;;;5074237;28;20206;-81
2022/02/18 09:15:06;;;;;;;3.73;0.80;;;12.40;99.90;;;;;;5074712;28;20199;-77
2022/02/18 09:17:33;;;;;;;0.97;0.63;;;12.40;99.90;;;;;;5075144;28;20223;-76
2022/02/18 09:20:00;;;;;;;1.27;0.50;;;12.50;99.90;;;;;;5074744;28;20188;-77
2022/02/18 09:22:33;;;;;;;0.50;0.50;;;12.50;99.90;;;;;;5074728;28;20423;-87
2022/02/18 09:25:06;;;;;;;0.77;0.40;;;12.60;99.90;;;;;;5081680;28;20241;-91
2022/02/18 09:27:33;;;;;;;2.77;0.60;;;12.60;99.90;;;;;;5077186;28;20230;-84
2022/02/18 09:30:10;;;;;;;1.10;0.70;;;12.70;99.90;;;;;;5079209;28;20201;-89
2022/02/18 09:32:37;;;;;;;0.70;0.60;;;12.70;99.90;;;;;;5080150;28;20691;-81
2022/02/18 09:35:04;;;;;;;0.37;0.33;;;12.70;99.90;;;;;;5076543;28;20210;-78
2022/02/18 09:37:31;;;;;;;0.70;0.70;;;12.70;99.90;;;;;;5073523;28;20257;-76
2022/02/18 09:39:59;;;;;;;2.90;1.07;;;12.70;99.90;;;;;;5075121;28;20215;-85
2022/02/18 09:42:28;;;;;;;1.60;0.40;;;12.80;99.90;;;;;;5076168;28;20218;-87
2022/02/18 09:44:56;;;;;;;0.40;0.40;;;12.70;99.90;;;;;;5073629;28;20204;-87
2022/02/18 09:47:23;;;;;;;1.90;0.73;;;12.70;99.90;;;;;;5076745;28;20203;-77
2022/02/18 09:49:53;;;;;;;2.53;0.83;;;12.70;99.90;;;;;;5074934;28;20207;-78
2022/02/18 09:52:20;;;;;;;1.50;0.70;;;12.60;99.90;;;;;;5074392;28;20205;-84
2022/02/18 09:54:48;;;;;;;1.37;0.50;;;12.60;99.90;;;;;;5074747;28;20211;-76
2022/02/18 09:57:16;;;;;;;2.83;0.50;;;12.60;99.90;;;;;;5074512;28;20213;-77
2022/02/18 09:59:45;;;;;;;2.20;0.70;;;12.60;99.90;;;;;;5073548;28;20694;-78
2022/02/18 10:02:14;;;;;;;1.83;0.70;;;12.80;99.90;;;;;;5072415;28;20682;-79
2022/02/18 10:04:41;;;;;;;1.63;0.60;;;12.60;99.90;;;;;;5073551;28;20229;-78
2022/02/18 10:07:08;;;;;;;2.30;0.70;;;12.60;99.90;;;;;;5075512;28;20193;-76
2022/02/18 10:09:40;;;;;;;0.60;0.60;;;12.60;99.90;;;;;;5076752;28;20211;-77
2022/02/18 10:12:09;;;;;;;0.47;0.40;;;12.70;99.90;;;;;;5074381;28;20843;-78
2022/02/18 10:14:57;;;;;;;0.53;0.53;;;12.70;99.90;;;;;;5076055;28;20208;-78
2022/02/18 10:17:25;;;;;;;0.60;0.50;;;12.70;99.90;;;;;;5075888;28;20253;-81
2022/02/18 10:19:54;;;;;;;0.47;0.47;;;12.70;99.90;;;;;;5075677;28;20203;-79
2022/02/18 10:22:26;;;;;;;1.27;0.57;;;12.60;99.90;;;;;;5075908;28;20295;-77
2022/02/18 10:24:53;;;;;;;1.83;0.60;;;12.70;99.90;;;;;;5075616;28;20189;-77
2022/02/18 10:27:22;;;;;;;1.30;0.40;;;12.70;99.90;;;;;;5073152;28;20217;-79
2022/02/18 10:29:58;;;;;;;0.40;0.30;;;12.90;99.90;;;;;;5073719;28;20215;-84
2022/02/18 10:32:25;;;;;;;0.50;0.50;;;12.90;99.90;;;;;;5075235;28;20622;-77
2022/02/18 10:34:53;;;;;;;1.17;0.50;;;13.00;99.90;;;;;;5073399;28;20208;-74
2022/02/18 10:37:21;;;;;;;1.17;0.63;;;13.00;99.90;;;;;;5072963;28;20228;-87
2022/02/18 10:39:49;;;;;;;0.83;0.50;;;13.00;99.90;;;;;;5072499;28;20228;-83
2022/02/18 10:42:17;;;;;;;1.97;0.33;;;13.10;99.90;;;;;;5073134;28;20208;-79
2022/02/18 10:44:44;;;;;;;1.10;0.80;;;13.10;99.90;;;;;;5073270;28;20203;-80
2022/02/18 10:47:22;;;;;;;3.85;0.70;;;13.10;99.90;;;;;;5072068;28;20537;-81
2022/02/18 10:49:50;;;;;;;2.73;0.60;;;13.20;99.90;;;;;;5073102;28;20216;-80
2022/02/18 10:52:18;;;;;;;0.63;0.50;;;13.20;99.90;;;;;;5071824;28;20644;-80
2022/02/18 10:54:47;;;;;;;1.13;0.80;;;13.20;99.90;;;;;;5072942;28;20208;-80
2022/02/18 10:57:19;;;;;;;1.00;0.60;;;13.20;99.90;;;;;;5073117;28;20211;-81
2022/02/18 10:59:46;;;;;;;1.93;0.63;;;13.10;99.90;;;;;;5073039;28;20221;-81
2022/02/18 11:02:35;;;;;;;2.70;0.57;;;13.10;99.90;;;;;;5073856;28;20536;-87
2022/02/18 11:05:20;;;;;;;5.67;0.80;;;13.10;99.90;;;;;;5074170;28;20228;-87
2022/02/18 11:07:53;;;;;;;0.50;0.50;;;13.10;99.90;;;;;;5063255;28;20200;-86
2022/02/18 11:10:37;;;;;;;0.40;0.40;;;13.10;99.90;;;;;;5073829;28;20209;-88
2022/02/18 11:13:07;;;;;;;1.07;0.70;;;12.90;99.90;;;;;;5074195;28;20196;-88
2022/02/18 11:15:41;;;;;;;2.80;0.73;;;12.80;99.90;;;;;;5074319;28;20212;-88
2022/02/18 11:18:09;;;;;;;1.57;0.50;;;12.80;99.90;;;;;;5073666;28;20262;-81
2022/02/18 11:20:45;;;;;;;2.13;0.50;;;12.80;99.90;;;;;;5073622;28;20679;-88
2022/02/18 11:23:16;;;;;;;0.40;0.40;;;12.70;99.90;;;;;;5074833;28;20196;-87
2022/02/18 11:25:46;;;;;;;0.60;0.60;;;12.80;99.90;;;;;;5075680;28;20279;-86
2022/02/18 11:28:14;;;;;;;1.40;0.60;;;12.80;99.90;;;;;;5076292;28;20288;-87
2022/02/18 11:30:45;;;;;;;0.63;0.57;;;12.90;99.90;;;;;;5073052;28;20223;-92
2022/02/18 11:33:24;;;;;;;1.10;0.60;;;12.90;99.90;;;;;;5071933;28;20218;-91
2022/02/18 11:36:11;;;;;;;2.93;0.60;;;12.80;99.90;;;;;;5059548;28;20212;-91
2022/02/18 11:38:49;;;;;;;2.20;0.63;;;12.80;99.90;;;;;;5068668;28;20282;-88
2022/02/18 11:41:34;;;;;;;2.30;0.60;;;12.60;99.90;;;;;;5071194;28;20199;-86
2022/02/18 11:44:04;;;;;;;0.80;0.63;;;12.60;99.90;;;;;;5072588;28;20210;-86
2022/02/18 11:46:37;;;;;;;0.73;0.60;;;12.50;99.90;;;;;;5073081;28;20203;-86
2022/02/18 11:49:08;;;;;;;1.08;0.60;;;12.50;99.90;;;;;;5073249;28;20920;-87
2022/02/18 11:51:45;;;;;;;0.60;0.60;;;12.50;99.90;;;;;;5062196;28;20200;-85
2022/02/18 11:54:28;;;;;;;1.57;0.60;;;12.60;99.90;;;;;;5067986;28;20203;-84
2022/02/18 11:57:01;;;;;;;1.87;0.50;;;12.40;99.90;;;;;;5067139;28;20225;-82
2022/02/18 11:59:45;;;;;;;3.07;0.80;;;11.80;99.90;;;;;;5072822;28;20214;-84
2022/02/18 12:02:18;;;;;;;3.93;1.17;;;10.80;99.90;;;;;;5055634;28;20352;-81
2022/02/18 12:05:05;;;;;;;3.70;1.37;;;10.40;99.90;;;;;;5061948;28;20226;-82
2022/02/18 12:07:38;;;;;;;4.83;2.03;;;10.30;99.90;;;;;;5055343;28;20228;-79
2022/02/18 12:10:10;;;;;;;9.47;1.50;;;10.30;99.90;;;;;;5055247;28;20230;-85
2022/02/18 12:12:41;;;;;;;5.60;1.33;;;10.30;99.90;;;;;;5064606;28;20208;-80
2022/02/18 12:15:17;;;;;;;7.00;1.60;;;10.20;99.90;;;;;;5068400;28;20649;-85
2022/02/18 12:17:49;;;;;;;4.83;1.40;;;10.20;99.90;;;;;;5055245;28;20229;-89
2022/02/18 12:20:19;;;;;;;5.03;1.40;;;10.40;99.90;;;;;;5055697;28;20257;-80
2022/02/18 12:22:49;;;;;;;9.37;2.07;;;10.30;99.90;;;;;;5054807;28;20194;-85
2022/02/18 12:25:26;;;;;;;7.93;1.80;;;10.20;99.90;;;;;;5055408;28;20669;-87
2022/02/18 12:28:16;;;;;;;5.83;1.33;;;10.20;99.90;;;;;;5040173;28;20206;-84
2022/02/18 12:30:52;;;;;;;4.93;1.40;;;10.10;99.90;;;;;;5056526;28;20203;-80
2022/02/18 12:33:20;;;;;;;11.55;2.45;;;10.10;99.90;;;;;;5056035;28;20426;-82
2022/02/18 12:35:47;;;;;;;11.93;2.20;;;10.10;99.90;;;;;;5059952;28;20191;-81
2022/02/18 12:38:18;;;;;;;9.60;2.70;;;10.10;99.90;;;;;;5058593;28;20198;-87
2022/02/18 12:40:49;;;;;;;9.33;2.00;;;10.10;99.90;;;;;;5059532;28;20190;-83
2022/02/18 12:43:22;;;;;;;12.43;2.73;;;10.10;99.90;;;;;;5065508;28;20225;-85
2022/02/18 12:45:52;;;;;;;10.47;2.37;;;10.00;99.90;;;;;;5066966;28;20225;-86
2022/02/18 12:48:35;;;;;;;11.10;2.63;;;10.10;99.90;;;;;;5063870;28;20195;-81
2022/02/18 12:51:08;;;;;;;13.63;2.20;;;10.20;99.90;;;;;;5062736;28;20315;-84
2022/02/18 12:53:38;;;;;;;10.43;2.78;;;10.20;99.90;;;;;;5060726;28;20456;-88